Time;durP1;ratioP1;P1;durP2;ratioP2;P2;SDS_P1;SDS_P2;PMS_P1;PMS_P2;Temp;Humidity;BMP_temperature;BMP_pressure;BME280_temperature;BME280_humidity;BME280_pressure;Samples;Min_cycle;Max_cycle;Signal;HPM_P1;HPM_P2
2022/01/11 00:01:03;;;;;;;8.45;4.63;;;;;;;14.63;48.11;102868.84;5034764;28;20037;-62
2022/01/11 00:03:30;;;;;;;9.25;5.43;;;;;;;14.62;48.03;102873.13;5017110;28;20042;-63
2022/01/11 00:06:01;;;;;;;9.18;5.30;;;;;;;14.61;48.06;102875.66;5034354;28;20030;-62
2022/01/11 00:08:33;;;;;;;9.35;5.60;;;;;;;14.60;48.18;102881.66;5033600;28;20041;-62
2022/01/11 00:11:04;;;;;;;10.02;5.20;;;;;;;14.61;47.95;102883.47;5032079;28;20091;-62
2022/01/11 00:13:34;;;;;;;9.35;5.55;;;;;;;14.60;48.02;102884.28;5029814;28;20116;-62
2022/01/11 00:16:00;;;;;;;9.25;5.40;;;;;;;14.59;47.87;102887.69;5031603;28;20131;-62
2022/01/11 00:18:26;;;;;;;9.32;5.50;;;;;;;14.59;47.85;102898.06;5031524;28;20030;-62
2022/01/11 00:20:52;;;;;;;9.35;5.43;;;;;;;14.59;47.94;102903.25;5031849;28;20380;-63
2022/01/11 00:25:45;;;;;;;10.30;5.90;;;;;;;14.58;48.03;102901.50;5033108;28;20037;-63
2022/01/11 00:28:13;;;;;;;9.35;5.60;;;;;;;14.57;48.19;102898.00;5032995;28;20056;-62
2022/01/11 00:30:41;;;;;;;11.68;5.97;;;;;;;14.57;47.86;102904.91;5033582;28;20108;-63
2022/01/11 00:33:11;;;;;;;10.55;5.78;;;;;;;14.57;47.99;102905.78;5033673;28;20025;-62
2022/01/11 00:35:45;;;;;;;9.38;5.32;;;;;;;14.57;47.92;102905.78;5030898;28;20049;-62
2022/01/11 00:38:15;;;;;;;9.45;5.50;;;;;;;14.57;48.19;102899.72;5033571;28;20076;-63
2022/01/11 00:40:45;;;;;;;10.73;5.78;;;;;;;14.57;48.01;102904.91;5033333;28;20051;-63
2022/01/11 00:43:11;;;;;;;9.85;5.80;;;;;;;14.56;48.19;102895.34;5033383;28;20032;-63
2022/01/11 00:45:36;;;;;;;10.30;5.53;;;;;;;14.55;48.03;102886.66;5018614;28;20029;-63
2022/01/11 00:48:02;;;;;;;10.95;5.65;;;;;;;14.55;48.18;102877.97;5032110;28;20049;-63
2022/01/11 00:50:28;;;;;;;10.18;5.50;;;;;;;14.54;47.98;102883.97;5015722;28;20033;-62
2022/01/11 00:52:54;;;;;;;9.60;5.28;;;;;;;14.54;48.02;102890.06;5033389;28;20033;-63
2022/01/11 00:55:19;;;;;;;10.57;5.82;;;;;;;14.54;48.08;102886.56;5033744;28;20029;-63
2022/01/11 00:57:45;;;;;;;9.55;5.35;;;;;;;14.54;48.02;102886.56;5033467;28;20033;-63
2022/01/11 01:00:11;;;;;;;9.55;5.75;;;;;;;14.54;48.12;102889.16;5033406;28;20030;-63
2022/01/11 01:02:38;;;;;;;9.95;5.68;;;;;;;14.53;47.82;102892.59;5033107;28;20034;-62
2022/01/11 01:05:05;;;;;;;9.27;5.35;;;;;;;14.53;47.86;102897.78;5033234;28;20025;-64
2022/01/11 01:07:30;;;;;;;10.93;5.80;;;;;;;14.52;47.84;102899.47;5033292;28;20030;-62
2022/01/11 01:10:07;;;;;;;10.45;5.50;;;;;;;14.52;47.96;102898.59;5033058;28;20022;-62
2022/01/11 01:12:33;;;;;;;9.38;5.43;;;;;;;14.52;48.25;102906.41;5030258;28;20494;-63
2022/01/11 01:15:00;;;;;;;9.52;5.35;;;;;;;14.51;48.09;102908.06;5032388;28;20034;-62
2022/01/11 01:17:26;;;;;;;8.15;5.13;;;;;;;14.51;48.05;102894.22;5032821;28;20080;-63
2022/01/11 01:19:52;;;;;;;8.75;5.55;;;;;;;14.49;48.08;102886.38;5013703;28;20415;-62
2022/01/11 01:22:17;;;;;;;10.13;5.97;;;;;;;14.49;47.98;102891.56;5014140;28;20030;-63
2022/01/11 01:24:43;;;;;;;9.70;5.75;;;;;;;14.48;48.13;102895.84;5014055;28;20038;-63
2022/01/11 01:27:08;;;;;;;10.30;5.90;;;;;;;14.48;48.02;102898.44;4996103;28;20477;-62
2022/01/11 01:29:34;;;;;;;10.73;5.80;;;;;;;14.48;47.93;102898.44;5013593;28;20030;-62
2022/01/11 01:32:00;;;;;;;9.13;5.32;;;;;;;14.49;48.07;102904.53;5013472;28;20088;-63
2022/01/11 01:34:26;;;;;;;9.77;5.87;;;;;;;14.48;48.16;102905.34;5013908;28;20457;-63
2022/01/11 01:36:52;;;;;;;10.23;5.93;;;;;;;14.47;48.09;102901.88;5013732;28;20026;-63
2022/01/11 01:39:17;;;;;;;10.60;5.63;;;;;;;14.46;48.16;102900.09;5017501;28;20033;-62
2022/01/11 01:41:45;;;;;;;9.05;5.45;;;;;;;14.47;47.98;102899.28;5020077;28;20038;-63
2022/01/11 01:44:11;;;;;;;10.82;6.43;;;;;;;14.46;47.99;102905.28;5020298;28;20571;-63
2022/01/11 01:46:36;;;;;;;9.93;5.22;;;;;;;14.47;48.18;102903.56;5019868;28;20121;-63
2022/01/11 01:49:02;;;;;;;10.65;5.90;;;;;;;14.46;48.00;102900.09;5020449;28;20053;-63
2022/01/11 01:51:29;;;;;;;10.38;5.43;;;;;;;14.47;48.09;102906.16;5020368;28;20124;-63
2022/01/11 01:53:55;;;;;;;11.52;6.32;;;;;;;14.46;48.12;102897.50;5020260;28;20087;-63
2022/01/11 01:56:22;;;;;;;9.40;5.57;;;;;;;14.46;47.99;102899.19;5020173;28;20451;-63
2022/01/11 01:58:48;;;;;;;10.10;5.70;;;;;;;14.45;48.04;102897.44;5020202;28;20083;-63
2022/01/11 02:01:14;;;;;;;8.85;5.40;;;;;;;14.45;48.01;102905.22;5002197;28;20049;-63
2022/01/11 02:03:41;;;;;;;9.95;5.18;;;;;;;14.45;48.08;102900.91;5020084;28;20041;-63
2022/01/11 02:06:12;;;;;;;11.05;5.50;;;;;;;14.45;48.00;102900.03;5020172;28;20049;-63
2022/01/11 02:08:38;;;;;;;9.48;5.47;;;;;;;14.44;48.21;102911.22;5019976;28;20400;-63
2022/01/11 02:11:05;;;;;;;9.45;5.30;;;;;;;14.43;48.11;102922.41;5002290;28;20026;-63
2022/01/11 02:13:31;;;;;;;10.60;5.70;;;;;;;14.43;47.97;102919.81;5019964;28;20465;-63
2022/01/11 02:15:57;;;;;;;10.25;6.00;;;;;;;14.43;48.02;102918.09;5019719;28;20044;-63
2022/01/11 02:18:25;;;;;;;9.70;5.15;;;;;;;14.43;48.26;102914.63;5027558;28;20171;-63
2022/01/11 02:20:52;;;;;;;9.77;5.80;;;;;;;14.42;48.12;102916.34;5039425;28;20387;-63
2022/01/11 02:23:19;;;;;;;10.75;5.75;;;;;;;14.42;48.19;102921.53;5039598;28;20108;-63
2022/01/11 02:25:46;;;;;;;9.48;5.30;;;;;;;14.42;48.15;102928.41;5039579;28;20029;-63
2022/01/11 02:28:17;;;;;;;10.88;5.55;;;;;;;14.42;48.18;102931.91;5039312;28;20029;-63
2022/01/11 02:30:42;;;;;;;8.60;5.28;;;;;;;14.42;48.10;102931.00;5039702;28;20429;-62
2022/01/11 02:33:18;;;;;;;9.70;5.82;;;;;;;14.40;48.19;102933.53;5039896;28;20112;-63
2022/01/11 02:35:51;;;;;;;9.15;5.20;;;;;;;14.40;47.99;102938.72;5039761;28;20033;-62
2022/01/11 02:38:16;;;;;;;10.40;5.60;;;;;;;14.40;48.31;102943.91;5039493;28;20045;-63
2022/01/11 02:40:43;;;;;;;9.85;5.60;;;;;;;14.39;48.23;102943.84;5039236;28;20044;-62
2022/01/11 02:43:08;;;;;;;10.07;5.43;;;;;;;14.39;48.21;102946.44;5039389;28;20052;-62
2022/01/11 02:45:34;;;;;;;10.75;5.57;;;;;;;14.38;48.29;102948.13;5039277;28;20392;-62
2022/01/11 02:47:59;;;;;;;9.88;5.63;;;;;;;14.37;48.07;102948.97;5021510;28;20538;-63
2022/01/11 02:50:25;;;;;;;10.63;5.47;;;;;;;14.38;48.24;102955.03;5037462;28;20030;-62
2022/01/11 02:52:51;;;;;;;10.40;5.47;;;;;;;14.37;48.18;102954.16;5036104;28;20030;-62
2022/01/11 02:55:17;;;;;;;11.45;5.43;;;;;;;14.36;48.25;102952.38;5036001;28;20039;-62
2022/01/11 02:57:43;;;;;;;11.18;5.90;;;;;;;14.36;48.32;102952.38;5036001;28;20029;-63
2022/01/11 03:00:14;;;;;;;12.13;5.82;;;;;;;14.36;48.25;102957.56;5018761;28;20108;-62
2022/01/11 03:02:39;;;;;;;10.63;5.55;;;;;;;14.36;48.06;102960.16;5036315;28;20051;-62
2022/01/11 03:05:06;;;;;;;11.60;5.82;;;;;;;14.36;48.25;102964.44;5036187;28;20470;-63
2022/01/11 03:07:32;;;;;;;10.70;5.47;;;;;;;14.35;48.10;102952.31;5036229;28;20036;-63
2022/01/11 03:10:06;;;;;;;10.35;6.00;;;;;;;14.36;48.24;102959.25;5035793;28;20427;-63
2022/01/11 03:12:31;;;;;;;11.63;6.35;;;;;;;14.35;48.25;102949.72;5036122;28;20072;-63
2022/01/11 03:14:57;;;;;;;12.55;6.40;;;;;;;14.34;48.14;102954.00;5018345;28;20057;-63
2022/01/11 03:17:23;;;;;;;11.02;6.00;;;;;;;14.34;48.06;102954.00;5035750;28;20037;-63
2022/01/11 03:19:49;;;;;;;11.18;5.70;;;;;;;14.34;48.14;102964.38;5017563;28;20084;-62
2022/01/11 03:22:14;;;;;;;11.25;6.50;;;;;;;14.33;48.13;102962.56;5035777;28;20088;-62
2022/01/11 03:24:40;;;;;;;13.10;6.28;;;;;;;14.33;48.24;102952.19;5015882;28;20041;-62
2022/01/11 03:27:07;;;;;;;11.52;6.07;;;;;;;14.32;48.08;102953.03;5033867;28;20029;-62
2022/01/11 03:29:34;;;;;;;11.02;5.88;;;;;;;14.32;48.17;102951.31;5035723;28;20103;-62
2022/01/11 03:31:59;;;;;;;10.55;5.85;;;;;;;14.32;48.23;102953.03;5035773;28;20025;-62
2022/01/11 03:34:25;;;;;;;10.75;5.80;;;;;;;14.31;47.97;102943.47;5035672;28;20383;-62
2022/01/11 03:36:50;;;;;;;11.45;6.05;;;;;;;14.31;48.11;102943.47;5035594;28;20063;-63
2022/01/11 03:39:15;;;;;;;11.65;6.10;;;;;;;14.31;48.36;102946.94;5035493;28;20033;-63
2022/01/11 03:41:41;;;;;;;9.38;5.30;;;;;;;14.30;48.14;102947.75;5035397;28;20061;-62
2022/01/11 03:44:06;;;;;;;9.00;5.30;;;;;;;14.30;48.21;102946.88;5035395;28;20372;-63
2022/01/11 03:46:32;;;;;;;10.38;5.55;;;;;;;14.30;48.06;102949.47;5017796;28;20032;-62
2022/01/11 03:48:57;;;;;;;10.23;5.93;;;;;;;14.29;48.21;102945.09;5035602;28;20143;-62
2022/01/11 03:51:22;;;;;;;11.50;6.40;;;;;;;14.28;48.06;102956.28;5017531;28;20380;-62
2022/01/11 03:53:56;;;;;;;10.63;5.78;;;;;;;14.27;48.18;102944.16;5017600;28;20041;-62
2022/01/11 03:56:22;;;;;;;11.65;6.07;;;;;;;14.26;48.15;102955.34;5035502;28;20072;-63
2022/01/11 03:58:50;;;;;;;11.05;6.38;;;;;;;14.26;48.03;102955.34;5035171;28;20060;-62
2022/01/11 04:01:16;;;;;;;10.68;5.78;;;;;;;14.26;48.21;102955.34;5034887;28;20061;-62
2022/01/11 04:03:41;;;;;;;12.50;6.28;;;;;;;14.26;48.06;102953.63;5034181;28;20116;-62
2022/01/11 04:06:07;;;;;;;10.52;5.30;;;;;;;14.25;48.27;102958.75;5034768;28;20080;-62
2022/01/11 04:08:32;;;;;;;10.40;5.80;;;;;;;14.25;47.95;102963.94;5034866;28;20061;-62
2022/01/11 04:10:58;;;;;;;10.82;6.18;;;;;;;14.23;48.10;102963.88;5034977;28;20033;-62
2022/01/11 04:13:23;;;;;;;10.98;6.10;;;;;;;14.24;48.12;102964.75;5034786;28;20431;-62
2022/01/11 04:15:49;;;;;;;11.15;5.45;;;;;;;14.24;48.10;102963.06;5034878;28;20021;-62
2022/01/11 04:18:15;;;;;;;13.85;6.72;;;;;;;14.23;48.13;102966.44;5034999;28;20032;-62
2022/01/11 04:20:40;;;;;;;11.32;5.72;;;;;;;14.22;48.13;102964.66;5034668;28;20042;-63
2022/01/11 04:23:09;;;;;;;11.95;5.93;;;;;;;14.21;48.29;102962.88;5034772;28;20029;-62
2022/01/11 04:25:34;;;;;;;9.70;5.55;;;;;;;14.22;48.06;102968.97;5034544;28;20040;-62
2022/01/11 04:28:01;;;;;;;11.98;6.57;;;;;;;14.22;48.10;102966.38;5034806;28;20033;-62
2022/01/11 04:30:26;;;;;;;10.82;6.32;;;;;;;14.20;48.11;102965.41;5034342;28;20026;-62
2022/01/11 04:32:53;;;;;;;13.13;6.78;;;;;;;14.20;48.23;102976.66;5034656;28;20033;-62
2022/01/11 04:35:18;;;;;;;11.40;5.97;;;;;;;14.19;48.05;102968.81;5034100;28;20361;-62
2022/01/11 04:37:45;;;;;;;12.02;5.97;;;;;;;14.21;48.07;102980.16;5034210;28;20036;-62
2022/01/11 04:40:11;;;;;;;11.55;5.93;;;;;;;14.20;48.13;102987.03;5034293;28;20112;-62
2022/01/11 04:42:37;;;;;;;12.25;5.95;;;;;;;14.19;48.08;102981.78;5034246;28;20109;-62
2022/01/11 04:45:03;;;;;;;11.60;6.03;;;;;;;14.20;48.22;102991.34;5016604;28;20033;-62
2022/01/11 04:47:28;;;;;;;12.52;6.10;;;;;;;14.18;48.05;102983.50;5033969;28;20095;-62
2022/01/11 04:49:53;;;;;;;12.85;6.63;;;;;;;14.16;48.22;102975.66;5034050;28;20025;-62
2022/01/11 04:52:19;;;;;;;11.52;6.25;;;;;;;14.18;48.18;102974.81;5034004;28;20042;-62
2022/01/11 04:54:44;;;;;;;11.15;6.53;;;;;;;14.17;48.08;102976.53;5034029;28;20476;-62
2022/01/11 04:57:10;;;;;;;10.13;5.95;;;;;;;14.16;48.16;102975.66;5016464;28;20041;-62
2022/01/11 04:59:35;;;;;;;9.93;5.63;;;;;;;14.15;48.07;102973.84;5016558;28;20056;-62
2022/01/11 05:02:00;;;;;;;11.88;6.32;;;;;;;14.15;48.08;102973.84;5034070;28;20038;-62
2022/01/11 05:04:26;;;;;;;10.57;6.15;;;;;;;14.14;48.20;102966.00;5034069;28;20052;-62
2022/01/11 05:06:51;;;;;;;11.63;5.88;;;;;;;14.15;48.03;102967.75;5016037;28;20072;-62
2022/01/11 05:09:17;;;;;;;11.90;6.78;;;;;;;14.13;48.25;102975.47;5016078;28;20039;-62
2022/01/11 05:11:42;;;;;;;11.60;6.53;;;;;;;14.15;48.01;102972.94;5033405;28;20391;-62
2022/01/11 05:14:07;;;;;;;11.90;6.63;;;;;;;14.13;48.00;102975.47;5033471;28;20499;-62
2022/01/11 05:16:33;;;;;;;12.32;6.18;;;;;;;14.12;48.24;102971.09;5034102;28;20029;-62
2022/01/11 05:18:58;;;;;;;11.00;5.85;;;;;;;14.12;48.01;102968.50;5033572;28;20061;-62
2022/01/11 05:21:23;;;;;;;11.45;6.07;;;;;;;14.13;48.19;102965.09;5033364;28;20396;-62
2022/01/11 05:23:49;;;;;;;11.80;6.28;;;;;;;14.11;48.12;102966.75;5033385;28;20033;-62
2022/01/11 05:26:14;;;;;;;12.10;6.15;;;;;;;14.11;48.14;102961.56;5033631;28;20185;-62
2022/01/11 05:28:40;;;;;;;14.05;7.15;;;;;;;14.12;48.10;102962.44;5033284;28;20395;-62
2022/01/11 05:31:05;;;;;;;10.90;6.05;;;;;;;14.11;48.20;102961.56;5034000;28;20037;-62
2022/01/11 05:33:31;;;;;;;11.98;6.32;;;;;;;14.11;48.18;102960.66;5033769;28;20064;-62
2022/01/11 05:35:57;;;;;;;12.02;6.88;;;;;;;14.10;47.88;102954.59;5033506;28;20037;-62
2022/01/11 05:38:22;;;;;;;12.55;7.10;;;;;;;14.10;48.07;102964.06;5015425;28;20046;-62
2022/01/11 05:40:47;;;;;;;10.55;6.10;;;;;;;14.09;48.22;102973.56;5032805;28;20087;-62
2022/01/11 05:43:14;;;;;;;13.38;6.45;;;;;;;14.09;48.11;102967.50;5033059;28;20029;-62
2022/01/11 05:45:40;;;;;;;12.87;6.47;;;;;;;14.09;48.11;102967.50;5032964;28;20069;-62
2022/01/11 05:48:06;;;;;;;11.88;6.05;;;;;;;14.09;48.23;102972.69;5033059;28;20088;-62
2022/01/11 05:50:31;;;;;;;11.70;6.40;;;;;;;14.08;48.25;102966.59;5033473;28;20041;-61
2022/01/11 05:52:57;;;;;;;12.20;6.28;;;;;;;14.08;48.13;102978.66;5033358;28;20033;-62
2022/01/11 05:55:23;;;;;;;12.20;6.50;;;;;;;14.06;48.01;102973.41;5033228;28;20112;-62
2022/01/11 05:57:48;;;;;;;13.13;6.63;;;;;;;14.06;48.16;102978.59;5034765;28;20043;-61
2022/01/11 06:00:18;;;;;;;12.10;6.68;;;;;;;14.05;48.04;102987.19;5034088;28;20042;-62
2022/01/11 06:02:46;;;;;;;11.75;6.68;;;;;;;14.05;48.15;102987.19;5033293;28;20038;-61
2022/01/11 06:05:12;;;;;;;12.23;6.90;;;;;;;14.05;48.03;102988.91;5033321;28;20087;-61
2022/01/11 06:07:39;;;;;;;11.43;6.43;;;;;;;14.03;48.02;102996.56;5032919;28;20387;-62
2022/01/11 06:10:06;;;;;;;15.13;7.67;;;;;;;14.04;48.25;103000.97;5030302;28;20044;-61
2022/01/11 06:12:32;;;;;;;12.30;6.60;;;;;;;14.03;48.13;103004.34;5032768;28;20028;-61
2022/01/11 06:14:57;;;;;;;13.35;7.18;;;;;;;14.03;48.13;103009.53;5032925;28;20369;-61
2022/01/11 06:17:22;;;;;;;13.98;7.47;;;;;;;14.03;47.95;103017.31;5032746;28;20034;-62
2022/01/11 06:19:48;;;;;;;12.07;6.97;;;;;;;14.02;48.03;103023.34;4969253;28;20095;-62
2022/01/11 06:22:13;;;;;;;14.15;7.28;;;;;;;14.00;48.02;103020.66;5025786;28;20037;-62
2022/01/11 06:24:39;;;;;;;13.13;7.30;;;;;;;14.01;48.02;103026.75;5007813;28;20596;-61
2022/01/11 06:27:04;;;;;;;12.45;6.55;;;;;;;14.00;48.06;103024.97;5017918;28;20030;-62
2022/01/11 06:29:29;;;;;;;13.40;7.43;;;;;;;14.00;48.27;103032.72;5031592;28;20036;-62
2022/01/11 06:31:55;;;;;;;13.45;6.78;;;;;;;13.99;48.00;103031.84;5034103;28;20026;-62
2022/01/11 06:34:20;;;;;;;14.65;7.25;;;;;;;13.99;48.01;103030.94;5034169;28;20033;-62
2022/01/11 06:36:46;;;;;;;15.00;7.40;;;;;;;14.00;47.91;103032.72;5035577;28;20104;-61
2022/01/11 06:39:11;;;;;;;12.88;7.18;;;;;;;13.99;48.17;103038.72;5035780;28;20029;-62
2022/01/11 06:41:37;;;;;;;12.63;7.00;;;;;;;13.98;48.17;103037.84;5036208;28;20456;-61
2022/01/11 06:44:03;;;;;;;13.63;7.00;;;;;;;13.97;47.97;103030.00;5035899;28;20029;-61
2022/01/11 06:46:29;;;;;;;13.32;6.95;;;;;;;13.97;48.25;103038.66;5036112;28;20102;-62
2022/01/11 06:48:54;;;;;;;11.82;6.90;;;;;;;13.96;48.09;103038.59;5035028;28;20042;-61
2022/01/11 06:51:20;;;;;;;13.10;7.40;;;;;;;13.96;48.14;103049.81;5034671;28;20415;-62
2022/01/11 06:53:46;;;;;;;12.70;6.95;;;;;;;13.95;48.14;103049.75;5034930;28;20033;-61
2022/01/11 06:56:11;;;;;;;13.18;7.05;;;;;;;13.95;48.14;103048.03;5016372;28;20467;-61
2022/01/11 06:58:38;;;;;;;13.20;7.43;;;;;;;13.94;48.18;103048.88;5034658;28;20049;-61
2022/01/11 07:01:04;;;;;;;14.00;7.53;;;;;;;13.94;48.03;103045.38;5036311;28;20034;-61
2022/01/11 07:03:29;;;;;;;14.10;7.32;;;;;;;13.93;47.87;103041.00;5035716;28;20472;-61
2022/01/11 07:05:54;;;;;;;14.95;7.60;;;;;;;13.96;47.84;103038.59;5035663;28;20494;-61
2022/01/11 07:08:20;;;;;;;11.35;6.57;;;;;;;13.98;48.00;103044.72;5018461;28;20037;-61
2022/01/11 07:10:45;;;;;;;13.43;7.10;;;;;;;14.00;48.05;103045.69;5035344;28;20503;-61
2022/01/11 07:13:11;;;;;;;13.13;7.20;;;;;;;14.03;47.92;103058.81;5035262;28;20040;-61
2022/01/11 07:15:36;;;;;;;12.98;7.13;;;;;;;14.08;47.93;103062.53;5035121;28;20034;-61
2022/01/11 07:18:08;;;;;;;15.13;7.25;;;;;;;14.12;47.59;103061.84;5035362;28;20064;-61
2022/01/11 07:20:33;;;;;;;15.07;7.57;;;;;;;14.18;47.68;103062.97;5033561;28;20030;-61
2022/01/11 07:22:59;;;;;;;16.02;8.65;;;;;;;14.21;47.38;103065.75;5035064;28;20030;-61
2022/01/11 07:25:25;;;;;;;15.55;7.40;;;;;;;14.24;47.37;103071.06;5034842;28;20030;-61
2022/01/11 07:27:50;;;;;;;14.38;7.75;;;;;;;14.25;47.42;103067.66;5034599;28;20028;-61
2022/01/11 07:30:15;;;;;;;14.32;7.63;;;;;;;14.26;47.35;103072.94;5035453;28;20025;-61
2022/01/11 07:32:41;;;;;;;13.55;7.20;;;;;;;14.28;47.37;103073.00;5035599;28;20021;-61
2022/01/11 07:35:07;;;;;;;13.82;7.35;;;;;;;14.29;47.38;103082.56;5034755;28;20026;-61
2022/01/11 07:37:32;;;;;;;14.70;8.30;;;;;;;14.30;47.50;103076.56;5034762;28;20029;-62
2022/01/11 07:39:58;;;;;;;13.70;7.47;;;;;;;14.30;47.35;103087.81;5035444;28;20476;-61
2022/01/11 07:42:23;;;;;;;16.17;8.07;;;;;;;14.31;47.17;103094.81;5034305;28;20044;-60
2022/01/11 07:44:51;;;;;;;16.60;8.15;;;;;;;14.31;47.26;103093.94;5034016;28;20087;-61
2022/01/11 07:47:17;;;;;;;;;;;;;;;14.33;47.96;103098.38;5034765;28;20132;-61
2022/01/11 07:49:42;;;;;;;14.57;7.55;;;;;;;14.34;47.31;103096.66;5035264;28;19940;-61
2022/01/11 07:52:08;;;;;;;15.38;7.70;;;;;;;14.32;47.30;103096.59;5034657;28;20033;-61
2022/01/11 07:54:33;;;;;;;14.90;7.95;;;;;;;14.34;47.11;103099.25;5033843;28;20044;-61
2022/01/11 07:56:59;;;;;;;14.88;7.25;;;;;;;14.35;47.18;103094.97;5034314;28;20087;-61
2022/01/11 07:59:24;;;;;;;14.25;8.00;;;;;;;14.35;47.09;103095.84;5034255;28;20455;-60
2022/01/11 08:01:49;;;;;;;15.32;8.02;;;;;;;14.35;47.06;103087.19;5034089;28;20060;-61
2022/01/11 08:04:15;;;;;;;15.15;7.82;;;;;;;14.37;46.80;103098.50;5034239;28;20030;-61
2022/01/11 08:06:40;;;;;;;15.23;8.15;;;;;;;14.37;46.84;103095.94;5034550;28;20041;-61
2022/01/11 08:09:07;;;;;;;13.18;7.30;;;;;;;14.37;46.69;103099.44;5034452;28;20104;-61
2022/01/11 08:11:33;;;;;;;16.70;8.13;;;;;;;14.39;46.83;103105.56;5034400;28;20041;-61
2022/01/11 08:13:58;;;;;;;15.63;8.23;;;;;;;14.40;46.69;103102.16;5033827;28;20533;-61
2022/01/11 08:16:24;;;;;;;12.10;7.13;;;;;;;14.40;46.79;103094.38;5033741;28;20120;-61
2022/01/11 08:18:49;;;;;;;15.23;7.97;;;;;;;14.41;46.84;103101.34;5022782;28;20069;-61
2022/01/11 08:21:15;;;;;;;13.32;7.20;;;;;;;14.42;46.70;103100.53;4999904;28;20423;-61
2022/01/11 08:23:40;;;;;;;15.82;8.30;;;;;;;14.42;46.75;103100.53;5033613;28;20045;-61
2022/01/11 08:26:05;;;;;;;13.40;7.47;;;;;;;14.44;46.43;103109.28;5034301;28;20080;-61
2022/01/11 08:28:32;;;;;;;15.02;7.97;;;;;;;14.45;46.51;103111.06;5034128;28;20029;-62
2022/01/11 08:30:57;;;;;;;15.95;7.55;;;;;;;14.45;46.54;103103.28;5033788;28;20037;-61
2022/01/11 08:33:24;;;;;;;14.23;7.43;;;;;;;14.44;46.50;103105.81;5033718;28;20029;-62
2022/01/11 08:35:50;;;;;;;11.68;6.80;;;;;;;14.44;46.61;103096.31;5034081;28;20399;-62
2022/01/11 08:38:16;;;;;;;15.40;7.75;;;;;;;14.44;46.32;103101.50;5033565;28;20472;-62
2022/01/11 08:40:44;;;;;;;14.55;8.38;;;;;;;14.43;46.39;103089.31;5033319;28;20037;-62
2022/01/11 08:43:10;;;;;;;14.32;7.53;;;;;;;14.45;46.53;103098.09;5033218;28;20029;-62
2022/01/11 08:45:36;;;;;;;15.93;7.82;;;;;;;14.44;46.45;103096.31;5033627;28;20535;-62
2022/01/11 08:48:02;;;;;;;14.40;7.53;;;;;;;14.44;46.53;103101.50;5032658;28;20050;-62
2022/01/11 08:50:28;;;;;;;14.60;7.95;;;;;;;14.44;46.15;103101.50;5033584;28;20037;-62
2022/01/11 08:52:53;;;;;;;13.73;7.90;;;;;;;14.43;46.29;103107.50;5033179;28;20376;-62
2022/01/11 08:55:19;;;;;;;13.70;7.72;;;;;;;14.43;46.31;103111.81;5015798;28;20392;-62
2022/01/11 08:57:44;;;;;;;14.13;6.93;;;;;;;14.42;46.38;103110.94;5015364;28;20399;-62
2022/01/11 09:00:16;;;;;;;15.50;8.07;;;;;;;14.41;46.42;103103.94;5033621;28;20387;-62
2022/01/11 09:02:51;;;;;;;15.15;7.85;;;;;;;14.41;46.55;103116.94;5033556;28;20041;-62
2022/01/11 09:05:17;;;;;;;11.43;6.88;;;;;;;14.42;46.34;103117.81;5032942;28;20391;-61
2022/01/11 09:07:42;;;;;;;13.30;7.78;;;;;;;14.40;46.49;103115.13;5032567;28;20038;-62
2022/01/11 09:10:08;;;;;;;14.90;7.70;;;;;;;14.41;46.38;103114.31;5033380;28;20033;-61
2022/01/11 09:12:34;;;;;;;13.20;7.13;;;;;;;14.41;46.32;103116.94;5032757;28;20026;-62
2022/01/11 09:15:01;;;;;;;12.98;7.55;;;;;;;14.41;46.47;103127.31;5025709;28;20033;-62
2022/01/11 09:17:26;;;;;;;14.73;7.60;;;;;;;14.41;46.31;103127.31;5032596;28;20112;-61
2022/01/11 09:19:52;;;;;;;12.57;6.97;;;;;;;14.41;46.46;103127.31;5033160;28;20108;-62
2022/01/11 09:22:18;;;;;;;14.57;7.88;;;;;;;14.41;46.26;103124.69;5032187;28;20396;-62
2022/01/11 09:24:43;;;;;;;14.27;7.55;;;;;;;14.42;46.36;103128.19;5031718;28;20025;-62
2022/01/11 09:27:08;;;;;;;13.70;7.18;;;;;;;14.42;46.45;103123.91;5032614;28;20033;-62
2022/01/11 09:29:37;;;;;;;13.98;7.47;;;;;;;14.42;46.39;103129.09;5032329;28;20033;-62
2022/01/11 09:32:05;;;;;;;12.25;6.72;;;;;;;14.42;46.38;103131.69;5026860;28;20095;-62
2022/01/11 09:34:30;;;;;;;13.30;7.10;;;;;;;14.43;46.56;103128.25;5030920;28;20507;-62
2022/01/11 09:36:56;;;;;;;12.20;6.57;;;;;;;14.43;46.49;103129.97;5024845;28;20036;-62
2022/01/11 09:39:22;;;;;;;11.98;7.35;;;;;;;14.42;46.47;103136.88;5032401;28;20464;-62
2022/01/11 09:41:47;;;;;;;12.48;6.70;;;;;;;14.42;46.42;103136.88;5031509;28;20125;-62
2022/01/11 09:44:13;;;;;;;12.45;6.82;;;;;;;14.40;46.42;103130.69;5032540;28;20038;-62
2022/01/11 09:46:38;;;;;;;12.20;6.95;;;;;;;14.42;46.38;103143.75;5032116;28;20120;-62
2022/01/11 09:49:05;;;;;;;12.18;6.63;;;;;;;14.42;46.46;103143.75;5019402;28;20057;-62
2022/01/11 09:51:35;;;;;;;11.40;6.53;;;;;;;14.43;46.26;103145.53;5012462;28;20088;-62
2022/01/11 09:54:02;;;;;;;13.73;6.80;;;;;;;14.43;46.42;103148.13;5012498;28;20447;-62
2022/01/11 09:56:27;;;;;;;12.73;6.93;;;;;;;14.43;46.34;103151.59;5013057;28;20036;-62
2022/01/11 09:58:53;;;;;;;10.68;6.20;;;;;;;14.43;46.38;103153.31;5013185;28;20034;-62
2022/01/11 10:01:18;;;;;;;14.23;6.75;;;;;;;14.42;46.61;103152.44;5016729;28;20057;-62
2022/01/11 10:04:04;;;;;;;12.45;6.93;;;;;;;14.44;46.58;103155.09;5016648;28;20473;-62
2022/01/11 10:06:30;;;;;;;14.23;6.60;;;;;;;14.44;46.24;103158.56;5016894;28;20688;-62
2022/01/11 10:09:08;;;;;;;11.73;6.45;;;;;;;14.44;46.74;103153.38;5017063;28;20434;-62
2022/01/11 10:11:34;;;;;;;;;;;;;;;14.46;47.08;103150.84;5017243;28;20034;-62
2022/01/11 10:14:19;;;;;;;12.70;6.70;;;;;;;14.44;46.46;103158.56;5016781;28;19917;-62
2022/01/11 10:16:45;;;;;;;12.65;6.45;;;;;;;14.46;46.23;103156.06;5016444;28;20041;-62
2022/01/11 10:19:26;;;;;;;10.73;5.40;;;;;;;14.45;46.67;103160.38;4997705;28;20353;-62
2022/01/11 10:21:54;;;;;;;12.32;6.65;;;;;;;14.46;46.20;103150.84;5016854;28;20034;-62
2022/01/11 10:24:32;;;;;;;;;;;;;;;14.47;47.11;103150.97;5016918;28;20065;-62
2022/01/11 10:27:08;;;;;;;11.50;5.90;;;;;;;14.46;46.46;103151.78;5016343;28;19967;-62
2022/01/11 10:29:37;;;;;;;12.05;6.43;;;;;;;14.47;46.36;103144.88;5008097;28;20042;-62
2022/01/11 10:32:11;;;;;;;13.25;6.35;;;;;;;14.48;46.52;103154.44;5002442;28;20030;-62
2022/01/11 10:34:36;;;;;;;13.60;6.75;;;;;;;14.48;46.38;103151.84;4996743;28;20027;-62
2022/01/11 10:37:05;;;;;;;12.60;6.68;;;;;;;14.47;46.38;103152.66;4995687;28;20105;-62
2022/01/11 10:39:43;;;;;;;10.60;5.60;;;;;;;14.47;46.68;103158.75;5002847;28;20058;-62
2022/01/11 10:42:27;;;;;;;11.57;6.38;;;;;;;14.48;46.52;103149.25;4997140;28;20076;-62
2022/01/11 10:44:59;;;;;;;10.85;5.90;;;;;;;14.49;46.44;103146.72;4996498;28;20037;-62
2022/01/11 10:47:31;;;;;;;12.43;5.75;;;;;;;14.49;46.46;103154.50;4996683;28;20031;-62
2022/01/11 10:50:26;;;;;;;12.43;6.53;;;;;;;14.50;46.59;103163.22;5034660;28;20059;-62
2022/01/11 10:52:51;;;;;;;10.45;6.25;;;;;;;14.50;46.38;103160.59;5030457;28;20029;-62
2022/01/11 10:55:20;;;;;;;10.57;5.82;;;;;;;14.50;46.50;103163.22;5035884;28;20435;-62
2022/01/11 10:57:55;;;;;;;12.77;6.50;;;;;;;14.49;46.41;103151.91;5034844;28;20041;-62
2022/01/11 11:00:24;;;;;;;10.75;6.07;;;;;;;14.51;46.36;103153.69;5033173;28;20109;-62
2022/01/11 11:02:52;;;;;;;11.05;6.03;;;;;;;14.51;46.23;103153.69;5035389;28;20075;-62
2022/01/11 11:05:20;;;;;;;11.60;6.40;;;;;;;14.51;46.15;103157.19;5035581;28;20079;-62
2022/01/11 11:08:10;;;;;;;11.52;5.82;;;;;;;14.51;46.62;103153.69;5035555;28;20021;-62
2022/01/11 11:10:40;;;;;;;12.73;6.15;;;;;;;14.49;46.54;103157.09;5015294;28;20033;-62
2022/01/11 11:13:07;;;;;;;11.82;6.30;;;;;;;14.51;46.38;103154.56;5034147;28;20530;-62
2022/01/11 11:15:41;;;;;;;10.57;5.90;;;;;;;14.52;46.39;103160.69;5035263;28;20056;-62
2022/01/11 11:18:21;;;;;;;10.82;5.97;;;;;;;14.53;46.56;103159.88;5030325;28;20042;-62
2022/01/11 11:20:47;;;;;;;11.07;5.50;;;;;;;14.54;46.25;103164.22;5015665;28;20042;-62